Time;durP1;ratioP1;P1;durP2;ratioP2;P2;SDS_P1;SDS_P2;PMS_P1;PMS_P2;Temp;Humidity;BMP_temperature;BMP_pressure;BME280_temperature;BME280_humidity;BME280_pressure;Samples;Min_cycle;Max_cycle;Signal;HPM_P1;HPM_P2
2021/08/25 00:02:11;;;;;;;6.30;3.70;;;11.70;99.90;;;;;;4976934;28;20022;-52
2021/08/25 00:04:40;;;;;;;5.13;3.40;;;11.60;99.90;;;;;;4974446;28;20478;-52
2021/08/25 00:07:07;;;;;;;5.00;4.13;;;11.70;99.90;;;;;;4976015;28;20075;-54
2021/08/25 00:09:36;;;;;;;6.07;3.92;;;11.60;99.90;;;;;;4973757;28;20606;-51
2021/08/25 00:12:02;;;;;;;5.95;3.55;;;11.60;99.90;;;;;;4974954;28;20389;-53
2021/08/25 00:14:28;;;;;;;5.53;3.55;;;11.60;99.90;;;;;;4973866;28;20027;-52
2021/08/25 00:16:54;;;;;;;5.50;3.20;;;11.60;99.90;;;;;;4973328;28;20026;-54
2021/08/25 00:19:20;;;;;;;4.97;3.45;;;11.50;99.90;;;;;;4978087;28;20036;-52
2021/08/25 00:21:45;;;;;;;5.10;3.17;;;11.50;99.90;;;;;;4973940;28;20026;-51
2021/08/25 00:24:11;;;;;;;5.60;2.92;;;11.50;99.90;;;;;;4975568;28;20452;-51
2021/08/25 00:26:36;;;;;;;8.90;3.33;;;11.50;99.90;;;;;;4974127;28;20598;-54
2021/08/25 00:29:02;;;;;;;5.50;3.38;;;11.50;99.90;;;;;;4976360;28;20386;-52
2021/08/25 00:31:27;;;;;;;4.93;2.90;;;11.50;99.90;;;;;;4985028;28;20026;-52
2021/08/25 00:33:53;;;;;;;5.15;3.13;;;11.40;99.90;;;;;;4977591;28;20052;-52
2021/08/25 00:36:18;;;;;;;3.13;2.60;;;11.40;99.90;;;;;;4972915;28;20030;-52
2021/08/25 00:38:44;;;;;;;5.25;3.65;;;11.40;99.90;;;;;;4974126;28;20050;-51
2021/08/25 00:41:10;;;;;;;5.50;3.00;;;11.40;99.90;;;;;;4976391;28;20030;-51
2021/08/25 00:43:35;;;;;;;3.90;2.80;;;11.40;99.90;;;;;;4973890;28;20050;-51
2021/08/25 00:46:01;;;;;;;5.25;3.42;;;11.40;99.90;;;;;;4976592;28;20033;-54
2021/08/25 00:48:26;;;;;;;4.88;3.53;;;11.30;99.90;;;;;;4985174;28;20118;-52
2021/08/25 00:50:52;;;;;;;6.38;3.20;;;11.30;99.90;;;;;;4975849;28;20033;-53
2021/08/25 00:53:24;;;;;;;3.13;2.55;;;11.30;99.90;;;;;;4976012;28;20117;-52
2021/08/25 00:55:51;;;;;;;3.90;3.20;;;11.20;99.90;;;;;;4974121;28;20033;-51
2021/08/25 00:58:17;;;;;;;4.05;3.00;;;11.20;99.90;;;;;;4980780;28;20480;-54
2021/08/25 01:00:56;;;;;;;5.80;3.30;;;11.10;99.90;;;;;;4974472;28;20045;-51
2021/08/25 01:03:31;;;;;;;4.20;2.90;;;11.10;99.90;;;;;;4969966;28;20608;-53
2021/08/25 01:05:58;;;;;;;4.50;3.10;;;11.10;99.90;;;;;;4975991;28;20437;-53
2021/08/25 01:08:25;;;;;;;7.93;3.65;;;11.10;99.90;;;;;;4971202;28;20320;-53
2021/08/25 01:10:51;;;;;;;5.45;3.15;;;11.00;99.90;;;;;;4972587;28;20023;-52
2021/08/25 01:13:17;;;;;;;3.53;3.03;;;11.00;99.90;;;;;;4971364;28;20026;-51
2021/08/25 01:15:43;;;;;;;5.75;4.13;;;11.00;99.90;;;;;;4970875;28;20027;-51
2021/08/25 01:18:12;;;;;;;4.22;3.28;;;10.90;99.90;;;;;;4976162;28;20031;-55
2021/08/25 01:20:39;;;;;;;5.35;3.10;;;10.90;99.90;;;;;;4973873;28;20081;-52
2021/08/25 01:23:05;;;;;;;5.78;3.33;;;10.90;99.90;;;;;;4973340;28;20176;-51
2021/08/25 01:25:32;;;;;;;4.32;3.50;;;10.90;99.90;;;;;;4970827;28;20536;-51
2021/08/25 01:28:01;;;;;;;4.45;3.38;;;10.90;99.90;;;;;;4972778;28;20025;-51
2021/08/25 01:30:30;;;;;;;7.60;3.70;;;10.80;99.90;;;;;;4969101;28;20422;-52
2021/08/25 01:32:59;;;;;;;5.50;3.45;;;10.80;99.90;;;;;;4976543;28;20027;-53
2021/08/25 01:35:45;;;;;;;4.75;3.58;;;10.80;99.90;;;;;;4972008;28;20115;-54
2021/08/25 01:38:35;;;;;;;3.17;2.63;;;10.70;99.90;;;;;;4972873;28;20043;-51
2021/08/25 01:41:02;;;;;;;4.85;3.13;;;10.70;99.90;;;;;;4971846;28;20031;-53
2021/08/25 01:43:28;;;;;;;5.22;3.25;;;10.70;99.90;;;;;;4970531;28;20015;-52
2021/08/25 01:45:53;;;;;;;4.25;3.20;;;10.70;99.90;;;;;;4969892;28;20022;-54
2021/08/25 01:48:19;;;;;;;5.40;3.22;;;10.60;99.90;;;;;;4972291;28;20106;-54
2021/08/25 01:50:44;;;;;;;5.22;3.58;;;10.70;99.90;;;;;;4974516;28;20030;-51
2021/08/25 01:53:14;;;;;;;7.07;3.60;;;10.60;99.90;;;;;;4973626;28;20026;-53
2021/08/25 01:55:40;;;;;;;4.63;3.33;;;10.70;99.90;;;;;;4971556;28;20678;-51
2021/08/25 01:58:06;;;;;;;6.15;3.83;;;10.60;99.90;;;;;;4972360;28;20031;-50
2021/08/25 02:00:32;;;;;;;4.78;3.30;;;10.60;99.90;;;;;;4970166;28;20029;-51
2021/08/25 02:02:57;;;;;;;4.82;3.50;;;10.60;99.90;;;;;;4970868;28;20019;-50
2021/08/25 02:05:23;;;;;;;7.15;3.75;;;10.70;99.90;;;;;;4977326;28;20083;-52
2021/08/25 02:07:49;;;;;;;6.22;4.05;;;10.70;99.90;;;;;;4971592;28;20089;-51
2021/08/25 02:10:14;;;;;;;3.58;2.90;;;10.60;99.90;;;;;;4971773;28;21352;-52
2021/08/25 02:12:40;;;;;;;7.53;3.70;;;10.70;99.90;;;;;;4970230;28;20062;-54
2021/08/25 02:15:06;;;;;;;4.95;3.90;;;10.60;99.90;;;;;;4985487;28;20046;-53
2021/08/25 02:17:32;;;;;;;6.95;4.55;;;10.60;99.90;;;;;;4973288;28;20101;-53
2021/08/25 02:19:57;;;;;;;6.70;4.35;;;10.60;99.90;;;;;;4972170;28;20165;-51
2021/08/25 02:22:23;;;;;;;4.93;4.03;;;10.60;99.90;;;;;;4972319;28;20025;-54
2021/08/25 02:24:48;;;;;;;6.80;4.40;;;10.60;99.90;;;;;;4970878;28;20027;-54
2021/08/25 02:27:14;;;;;;;6.72;4.97;;;10.60;99.90;;;;;;4971644;28;20019;-51
2021/08/25 02:29:40;;;;;;;6.82;5.10;;;10.60;99.90;;;;;;4970407;28;20390;-54
2021/08/25 02:32:05;;;;;;;8.65;4.90;;;10.60;99.90;;;;;;4971256;28;20031;-51
2021/08/25 02:34:31;;;;;;;8.00;4.85;;;10.60;99.90;;;;;;4976136;28;20532;-51
2021/08/25 02:36:57;;;;;;;6.75;4.82;;;10.60;99.90;;;;;;4975913;28;20038;-51
2021/08/25 02:39:22;;;;;;;8.65;4.93;;;10.60;99.90;;;;;;4975761;28;20022;-53
2021/08/25 02:41:48;;;;;;;6.65;4.75;;;10.60;99.90;;;;;;4974906;28;20031;-50
2021/08/25 02:44:14;;;;;;;8.15;4.68;;;10.60;99.90;;;;;;4974928;28;20021;-51
2021/08/25 02:46:39;;;;;;;7.30;4.13;;;10.60;99.90;;;;;;4973571;28;20073;-52
2021/08/25 02:49:05;;;;;;;6.85;4.15;;;10.50;99.90;;;;;;4994128;28;20528;-51
2021/08/25 02:51:31;;;;;;;8.07;4.82;;;10.50;99.90;;;;;;4976857;28;20031;-51
2021/08/25 02:53:56;;;;;;;6.22;4.10;;;10.50;99.90;;;;;;4975340;28;20567;-51
2021/08/25 02:56:22;;;;;;;6.30;4.72;;;10.50;99.90;;;;;;4975928;28;20034;-52
2021/08/25 02:58:47;;;;;;;6.13;4.70;;;10.50;99.90;;;;;;4974550;28;20138;-51
2021/08/25 03:01:13;;;;;;;6.35;4.55;;;10.50;99.90;;;;;;4974856;28;20022;-51
2021/08/25 03:03:38;;;;;;;4.50;3.78;;;10.50;99.90;;;;;;4973446;28;20011;-51
2021/08/25 03:06:04;;;;;;;5.53;4.07;;;10.50;99.90;;;;;;4975096;28;20030;-52
2021/08/25 03:08:30;;;;;;;7.00;4.32;;;10.50;99.90;;;;;;4975115;28;20042;-51
2021/08/25 03:10:55;;;;;;;5.85;4.25;;;10.50;99.90;;;;;;4973174;28;20085;-52
2021/08/25 03:13:21;;;;;;;6.68;4.20;;;10.50;99.90;;;;;;4974059;28;20030;-51
2021/08/25 03:15:47;;;;;;;5.88;4.32;;;10.60;99.90;;;;;;4975421;28;20389;-51
2021/08/25 03:18:12;;;;;;;4.30;3.47;;;10.50;99.90;;;;;;4975430;28;20027;-51
2021/08/25 03:20:38;;;;;;;6.20;4.43;;;10.60;99.90;;;;;;4976524;28;20015;-52
2021/08/25 03:23:03;;;;;;;8.05;4.93;;;10.60;99.90;;;;;;4972873;28;20157;-53
2021/08/25 03:25:29;;;;;;;7.13;5.00;;;10.60;99.90;;;;;;4974713;28;20027;-50
2021/08/25 03:27:55;;;;;;;9.15;4.75;;;10.60;99.90;;;;;;4973820;28;20025;-52
2021/08/25 03:30:20;;;;;;;7.47;4.93;;;10.60;99.90;;;;;;4972492;28;20510;-51
2021/08/25 03:32:46;;;;;;;7.60;4.80;;;10.60;99.90;;;;;;4975455;28;20023;-52
2021/08/25 03:35:12;;;;;;;5.05;4.13;;;10.70;99.90;;;;;;4974959;28;20110;-52
2021/08/25 03:37:38;;;;;;;8.48;5.60;;;10.70;99.90;;;;;;4976275;28;20058;-51
2021/08/25 03:40:06;;;;;;;7.80;5.00;;;10.70;99.90;;;;;;4973790;28;20461;-52
2021/08/25 03:42:32;;;;;;;7.05;5.63;;;10.70;99.90;;;;;;4974391;28;20031;-53
2021/08/25 03:44:57;;;;;;;6.53;5.32;;;10.70;99.90;;;;;;4971857;28;20109;-51
2021/08/25 03:47:23;;;;;;;8.43;6.25;;;10.80;99.90;;;;;;4973382;28;20015;-54
2021/08/25 03:49:49;;;;;;;7.85;5.20;;;10.80;99.90;;;;;;4975151;28;20026;-51
2021/08/25 03:52:14;;;;;;;8.43;6.18;;;10.80;99.90;;;;;;4974423;28;20114;-52
2021/08/25 03:54:40;;;;;;;7.70;6.90;;;10.90;99.90;;;;;;4975996;28;20143;-53
2021/08/25 03:57:06;;;;;;;8.30;6.78;;;10.90;99.90;;;;;;4973900;28;20070;-51
2021/08/25 03:59:31;;;;;;;8.73;6.97;;;10.90;99.90;;;;;;4974308;28;20034;-51
2021/08/25 04:01:57;;;;;;;13.60;8.45;;;10.90;99.90;;;;;;4972757;28;20519;-51
2021/08/25 04:04:22;;;;;;;13.10;9.20;;;11.00;99.90;;;;;;4972990;28;20067;-55
2021/08/25 04:06:48;;;;;;;11.30;8.35;;;11.00;99.90;;;;;;4974691;28;20054;-52
2021/08/25 04:09:13;;;;;;;12.80;7.90;;;11.10;99.90;;;;;;4973303;28;20030;-52
2021/08/25 04:11:39;;;;;;;11.38;9.05;;;11.10;99.90;;;;;;4972583;28;20490;-51
2021/08/25 04:14:05;;;;;;;11.38;9.63;;;11.10;99.90;;;;;;4988215;28;20118;-52
2021/08/25 04:16:31;;;;;;;9.45;8.55;;;11.10;99.90;;;;;;4974796;28;20023;-51
2021/08/25 04:18:56;;;;;;;12.20;9.30;;;11.10;99.90;;;;;;4975832;28;20054;-52
2021/08/25 04:21:23;;;;;;;12.13;9.65;;;11.10;99.90;;;;;;4974219;28;20053;-51
2021/08/25 04:23:49;;;;;;;16.45;10.10;;;11.20;99.90;;;;;;4974319;28;20022;-51
2021/08/25 04:26:14;;;;;;;13.25;10.18;;;11.20;99.90;;;;;;4973551;28;20027;-51
2021/08/25 04:28:40;;;;;;;13.48;9.38;;;11.20;99.90;;;;;;4973425;28;20051;-51
2021/08/25 04:31:08;;;;;;;11.68;9.85;;;11.20;99.90;;;;;;4972679;28;20022;-52
2021/08/25 04:33:34;;;;;;;12.15;10.05;;;11.30;99.90;;;;;;4989588;28;20198;-53
2021/08/25 04:36:00;;;;;;;12.40;10.00;;;11.20;99.90;;;;;;4990200;28;20546;-52
2021/08/25 04:38:25;;;;;;;15.75;9.52;;;11.30;99.90;;;;;;4973669;28;20022;-52
2021/08/25 04:40:53;;;;;;;14.30;10.88;;;11.30;99.90;;;;;;4973297;28;20145;-51
2021/08/25 04:43:19;;;;;;;13.25;9.88;;;11.30;99.90;;;;;;4973135;28;20531;-53
2021/08/25 04:45:44;;;;;;;9.90;8.40;;;11.30;99.90;;;;;;4972111;28;20019;-52
2021/08/25 04:48:10;;;;;;;9.77;8.77;;;11.40;99.90;;;;;;4973171;28;20499;-51
2021/08/25 04:50:35;;;;;;;11.27;9.10;;;11.30;99.90;;;;;;4974623;28;20731;-51
2021/08/25 04:53:06;;;;;;;11.20;9.30;;;11.30;99.90;;;;;;4975776;28;20038;-53
2021/08/25 04:55:33;;;;;;;11.80;8.18;;;11.30;99.90;;;;;;4973248;28;20106;-53
2021/08/25 04:57:58;;;;;;;10.05;8.95;;;11.30;99.90;;;;;;4988619;28;20085;-51
2021/08/25 05:00:24;;;;;;;11.60;9.82;;;11.40;99.90;;;;;;4973224;28;20030;-52
2021/08/25 05:02:49;;;;;;;11.40;9.57;;;11.40;99.90;;;;;;4971825;28;20089;-52
2021/08/25 05:05:15;;;;;;;13.15;8.90;;;11.40;99.90;;;;;;4973549;28;20113;-52
2021/08/25 05:07:40;;;;;;;9.70;8.63;;;11.40;99.90;;;;;;4971343;28;21484;-51
2021/08/25 05:10:06;;;;;;;9.40;8.15;;;11.40;99.90;;;;;;4973202;28;20063;-53
2021/08/25 05:12:31;;;;;;;9.77;8.70;;;11.50;99.90;;;;;;4972242;28;20030;-54
2021/08/25 05:14:57;;;;;;;9.50;8.60;;;11.50;99.90;;;;;;4971869;28;20034;-54
2021/08/25 05:17:23;;;;;;;9.27;7.97;;;11.50;99.90;;;;;;4976252;28;20090;-51
2021/08/25 05:19:48;;;;;;;10.65;9.43;;;11.60;99.90;;;;;;4975954;28;20066;-49
2021/08/25 05:22:14;;;;;;;10.38;8.55;;;11.60;99.90;;;;;;4974852;28;20015;-52
2021/08/25 05:24:39;;;;;;;10.93;8.18;;;11.60;99.90;;;;;;4972676;28;20033;-53
2021/08/25 05:27:05;;;;;;;12.13;8.02;;;11.60;99.90;;;;;;4975014;28;20026;-51
2021/08/25 05:29:30;;;;;;;9.95;7.47;;;11.60;99.90;;;;;;4971887;28;20022;-52
2021/08/25 05:31:56;;;;;;;12.02;7.70;;;11.70;99.90;;;;;;4971567;28;20029;-51
2021/08/25 05:34:21;;;;;;;12.88;8.85;;;11.70;99.90;;;;;;4976200;28;20035;-51
2021/08/25 05:36:47;;;;;;;10.55;9.07;;;11.70;99.90;;;;;;4974049;28;20027;-53
2021/08/25 05:39:13;;;;;;;12.10;8.80;;;11.80;99.90;;;;;;4974458;28;20023;-52
2021/08/25 05:41:38;;;;;;;12.73;10.10;;;11.80;99.90;;;;;;4972395;28;20065;-53
2021/08/25 05:44:04;;;;;;;11.52;10.07;;;11.90;99.90;;;;;;4980962;23;20047;-49
2021/08/25 05:46:34;;;;;;;17.50;11.55;;;12.00;99.90;;;;;;4964514;28;20019;-49
2021/08/25 05:49:00;;;;;;;12.07;9.77;;;12.10;99.90;;;;;;4950487;28;20031;-47
2021/08/25 05:51:26;;;;;;;12.82;10.27;;;12.20;99.90;;;;;;4950359;28;20085;-45
2021/08/25 05:53:52;;;;;;;17.38;12.35;;;12.20;99.90;;;;;;4949421;28;20018;-47
2021/08/25 05:56:18;;;;;;;18.67;11.95;;;12.40;99.90;;;;;;4949365;29;20024;-49
2021/08/25 05:58:43;;;;;;;12.73;11.13;;;12.50;99.90;;;;;;4950068;28;20560;-50
2021/08/25 06:01:13;;;;;;;16.38;11.50;;;12.50;99.90;;;;;;4950012;29;20091;-49
2021/08/25 06:03:39;;;;;;;24.60;13.73;;;12.60;99.90;;;;;;4950038;28;20019;-51
2021/08/25 06:06:04;;;;;;;17.08;13.48;;;12.70;99.90;;;;;;4949419;28;20026;-47
2021/08/25 06:08:30;;;;;;;17.58;13.30;;;12.80;99.90;;;;;;4967218;28;20388;-47
2021/08/25 06:10:55;;;;;;;17.40;13.85;;;12.90;99.90;;;;;;4955997;29;20109;-48
2021/08/25 06:13:21;;;;;;;17.20;12.55;;;13.00;99.90;;;;;;4955924;28;20778;-51
2021/08/25 06:15:46;;;;;;;14.00;11.93;;;13.00;99.90;;;;;;4956982;28;20027;-48
2021/08/25 06:18:12;;;;;;;18.65;13.82;;;13.10;99.90;;;;;;4967702;28;20054;-51
2021/08/25 06:20:37;;;;;;;18.60;13.20;;;13.20;99.90;;;;;;4954902;28;20169;-48
2021/08/25 06:23:03;;;;;;;16.67;12.63;;;13.20;99.90;;;;;;4967649;28;20074;-53
2021/08/25 06:25:29;;;;;;;14.05;12.00;;;13.30;99.90;;;;;;4955782;28;20015;-46
2021/08/25 06:27:54;;;;;;;14.93;12.35;;;13.40;99.90;;;;;;4955850;28;20023;-48
2021/08/25 06:30:20;;;;;;;17.98;13.52;;;13.50;99.90;;;;;;4955524;29;20079;-53
2021/08/25 06:32:46;;;;;;;17.63;11.90;;;13.60;99.90;;;;;;4952088;28;20565;-50
2021/08/25 06:35:11;;;;;;;14.77;12.35;;;13.70;99.90;;;;;;4947055;28;20059;-48
2021/08/25 06:37:37;;;;;;;19.58;12.40;;;13.80;99.90;;;;;;4950593;28;20031;-47
2021/08/25 06:40:03;;;;;;;19.88;13.68;;;13.90;99.90;;;;;;4949376;28;20074;-46
2021/08/25 06:42:29;;;;;;;14.98;12.02;;;14.00;99.90;;;;;;4952336;28;20039;-46
2021/08/25 06:44:55;;;;;;;14.07;12.05;;;14.00;99.90;;;;;;4950401;28;20521;-48
2021/08/25 06:47:20;;;;;;;15.52;12.65;;;14.10;99.90;;;;;;4947843;29;20019;-51
2021/08/25 06:49:46;;;;;;;15.35;12.45;;;14.20;99.90;;;;;;4951295;28;20098;-50
2021/08/25 06:52:11;;;;;;;14.50;11.32;;;14.30;99.90;;;;;;4949147;28;20050;-48
2021/08/25 06:54:37;;;;;;;14.80;11.32;;;14.40;99.90;;;;;;4954276;28;20711;-53
2021/08/25 06:57:03;;;;;;;12.88;10.80;;;14.50;99.90;;;;;;4950592;28;20031;-49
2021/08/25 06:59:28;;;;;;;11.02;9.07;;;14.70;99.90;;;;;;4953093;28;20537;-47
2021/08/25 07:01:54;;;;;;;16.83;10.07;;;14.80;99.90;;;;;;4951146;28;20106;-49
2021/08/25 07:04:19;;;;;;;9.65;8.30;;;15.00;99.90;;;;;;4943736;29;20381;-51
2021/08/25 07:06:45;;;;;;;13.27;8.15;;;15.10;99.90;;;;;;4951239;28;20031;-49
2021/08/25 07:09:11;;;;;;;11.25;7.72;;;15.20;99.90;;;;;;4953561;28;20507;-50
2021/08/25 07:11:36;;;;;;;8.48;7.28;;;15.30;99.90;;;;;;4956021;28;20115;-52
2021/08/25 07:14:03;;;;;;;8.63;6.38;;;15.40;99.90;;;;;;4956143;28;20026;-49
2021/08/25 07:16:33;;;;;;;6.85;5.80;;;15.60;99.90;;;;;;4955033;29;20394;-47
2021/08/25 07:19:00;;;;;;;9.80;5.72;;;15.90;99.90;;;;;;4954777;28;20063;-52
2021/08/25 07:21:25;;;;;;;5.35;4.47;;;16.20;99.90;;;;;;4951554;29;20046;-48
2021/08/25 07:23:51;;;;;;;5.72;4.78;;;16.50;99.90;;;;;;4947868;28;20154;-52
2021/08/25 07:26:17;;;;;;;5.03;4.25;;;16.70;99.90;;;;;;4950521;28;20094;-50
2021/08/25 07:28:44;;;;;;;5.82;4.20;;;16.80;99.90;;;;;;4947356;29;20019;-54
2021/08/25 07:31:13;;;;;;;3.67;3.20;;;16.90;99.90;;;;;;4949738;28;20694;-48
2021/08/25 07:33:40;;;;;;;3.55;2.80;;;17.00;99.90;;;;;;4951828;29;20746;-51
2021/08/25 07:36:06;;;;;;;3.83;2.15;;;17.20;99.90;;;;;;4948149;29;20028;-51
2021/08/25 07:38:32;;;;;;;2.95;2.35;;;17.30;99.90;;;;;;4951535;29;20031;-52
2021/08/25 07:40:58;;;;;;;4.10;2.03;;;17.50;99.90;;;;;;4947362;29;20038;-49
2021/08/25 07:43:24;;;;;;;3.10;2.22;;;17.70;99.90;;;;;;4950292;29;20039;-53
2021/08/25 07:45:49;;;;;;;2.30;1.85;;;17.70;99.90;;;;;;4952586;29;20102;-48
2021/08/25 07:48:15;;;;;;;2.50;2.30;;;17.70;99.90;;;;;;4949357;28;20111;-48
2021/08/25 07:50:40;;;;;;;4.07;2.10;;;17.90;99.90;;;;;;4951444;29;20031;-51
2021/08/25 07:53:06;;;;;;;4.45;2.30;;;18.00;99.90;;;;;;4947986;29;20691;-51
2021/08/25 07:55:32;;;;;;;3.88;1.83;;;17.90;99.90;;;;;;4950430;29;20031;-49
2021/08/25 07:57:57;;;;;;;2.88;1.60;;;18.00;99.90;;;;;;4946961;29;20035;-47
2021/08/25 08:00:23;;;;;;;5.45;1.85;;;18.20;99.90;;;;;;4949394;29;20070;-46
2021/08/25 08:02:48;;;;;;;3.58;1.58;;;18.30;99.90;;;;;;4951854;29;20090;-53
2021/08/25 08:05:14;;;;;;;2.38;1.48;;;18.40;99.90;;;;;;4948474;28;20083;-50
2021/08/25 08:07:40;;;;;;;1.83;1.50;;;18.60;99.90;;;;;;4947355;29;20459;-48
2021/08/25 08:10:07;;;;;;;4.90;1.50;;;18.80;99.90;;;;;;4949448;29;20034;-50
2021/08/25 08:12:32;;;;;;;3.25;1.35;;;18.80;99.90;;;;;;4952225;28;20069;-51
2021/08/25 08:14:58;;;;;;;1.52;1.00;;;18.70;99.90;;;;;;4948011;29;20062;-49
2021/08/25 08:17:24;;;;;;;3.65;0.90;;;18.60;99.90;;;;;;4950264;29;20023;-51
2021/08/25 08:19:49;;;;;;;2.25;1.05;;;18.60;99.90;;;;;;4950975;29;20027;-50
2021/08/25 08:22:15;;;;;;;1.08;0.63;;;18.60;99.90;;;;;;4950297;29;20086;-50
2021/08/25 08:24:41;;;;;;;1.42;0.93;;;18.60;99.90;;;;;;4946780;29;20027;-53
2021/08/25 08:27:07;;;;;;;3.25;0.77;;;18.60;99.90;;;;;;4945531;28;20019;-47
2021/08/25 08:29:34;;;;;;;1.38;0.90;;;18.60;99.90;;;;;;4946037;28;20110;-47
2021/08/25 08:32:00;;;;;;;2.08;1.65;;;18.60;99.90;;;;;;4946969;29;20051;-47
2021/08/25 08:34:26;;;;;;;2.35;0.88;;;18.60;99.90;;;;;;4948344;29;20019;-48
2021/08/25 08:36:52;;;;;;;2.42;1.00;;;18.60;99.90;;;;;;4949909;29;20022;-50
2021/08/25 08:39:18;;;;;;;2.58;0.90;;;18.50;99.90;;;;;;4948386;29;20031;-47
2021/08/25 08:41:43;;;;;;;4.57;1.13;;;18.60;99.90;;;;;;4946212;29;20113;-51
2021/08/25 08:44:12;;;;;;;3.03;1.00;;;18.50;99.90;;;;;;4948269;29;20114;-51
2021/08/25 08:46:40;;;;;;;2.20;0.65;;;18.40;99.90;;;;;;4951454;29;20078;-47
2021/08/25 08:49:07;;;;;;;1.48;0.80;;;18.40;99.90;;;;;;4945618;29;20518;-49
2021/08/25 08:51:37;;;;;;;0.68;0.60;;;18.40;99.90;;;;;;4948239;28;20028;-47
2021/08/25 08:54:03;;;;;;;2.00;0.75;;;18.50;99.90;;;;;;4953195;28;20042;-46
2021/08/25 08:56:29;;;;;;;1.75;0.55;;;18.70;99.90;;;;;;4948991;29;20031;-47
2021/08/25 08:58:56;;;;;;;2.53;1.17;;;19.00;99.90;;;;;;4960140;28;20031;-50
2021/08/25 09:01:22;;;;;;;1.05;0.60;;;18.90;99.90;;;;;;4945070;29;20078;-51
2021/08/25 09:03:48;;;;;;;2.22;0.50;;;18.90;99.90;;;;;;4937945;28;20019;-49
2021/08/25 09:06:14;;;;;;;3.20;0.73;;;19.00;99.90;;;;;;4941078;29;20034;-49
2021/08/25 09:08:40;;;;;;;2.42;1.13;;;19.10;99.90;;;;;;4944901;29;20024;-46
2021/08/25 09:11:14;;;;;;;1.35;0.90;;;19.10;99.90;;;;;;4949464;28;20393;-47
2021/08/25 09:13:48;;;;;;;3.60;1.17;;;19.10;99.90;;;;;;4947216;28;20051;-49
2021/08/25 09:16:30;;;;;;;4.40;0.65;;;19.30;99.90;;;;;;4949223;28;20439;-48
2021/08/25 09:19:10;;;;;;;1.58;0.82;;;19.30;99.90;;;;;;4961383;28;20394;-47
2021/08/25 09:21:42;;;;;;;2.53;0.52;;;19.30;99.90;;;;;;4948510;29;20490;-47
2021/08/25 09:24:09;;;;;;;1.67;1.13;;;19.10;99.90;;;;;;4949140;28;20034;-46
2021/08/25 09:26:37;;;;;;;1.73;0.80;;;18.80;99.90;;;;;;4963791;28;20019;-49
2021/08/25 09:29:20;;;;;;;0.88;0.63;;;18.70;99.90;;;;;;4945948;29;20015;-50
2021/08/25 09:31:48;;;;;;;3.92;0.82;;;18.80;99.90;;;;;;4945146;29;20019;-48
2021/08/25 09:34:30;;;;;;;2.78;0.73;;;18.80;99.90;;;;;;4945364;29;20344;-49
2021/08/25 09:37:05;;;;;;;0.85;0.75;;;19.00;99.90;;;;;;4946791;29;20031;-49
2021/08/25 09:39:31;;;;;;;0.65;0.65;;;19.00;99.90;;;;;;4944708;29;20604;-51
2021/08/25 09:41:57;;;;;;;0.80;0.60;;;18.90;99.90;;;;;;4939655;29;20039;-46
2021/08/25 09:44:23;;;;;;;0.70;0.50;;;18.90;99.90;;;;;;4946769;29;20023;-49
2021/08/25 09:46:50;;;;;;;1.75;0.60;;;18.90;99.90;;;;;;4940442;29;20031;-48
2021/08/25 09:49:16;;;;;;;0.77;0.40;;;19.00;99.90;;;;;;4947708;29;20042;-49
2021/08/25 09:51:42;;;;;;;2.20;0.60;;;19.20;99.90;;;;;;4942314;28;20024;-50
2021/08/25 09:54:11;;;;;;;2.08;0.75;;;19.50;99.90;;;;;;4946106;28;20039;-50
2021/08/25 09:56:38;;;;;;;4.45;0.90;;;19.70;99.90;;;;;;4944307;29;20042;-47
2021/08/25 09:59:05;;;;;;;1.65;0.70;;;19.70;99.90;;;;;;4950106;28;20054;-47
2021/08/25 10:01:31;;;;;;;2.90;0.60;;;19.50;99.90;;;;;;4948824;29;20516;-47
2021/08/25 10:03:57;;;;;;;1.17;0.52;;;19.50;99.90;;;;;;4949976;28;20031;-47
2021/08/25 10:06:26;;;;;;;2.70;0.70;;;19.50;99.90;;;;;;4946271;28;20134;-54
2021/08/25 10:08:52;;;;;;;1.00;0.50;;;19.70;99.90;;;;;;4947387;29;20019;-49
2021/08/25 10:11:23;;;;;;;1.38;0.82;;;19.60;99.90;;;;;;4950750;28;20031;-52
2021/08/25 10:13:49;;;;;;;2.60;0.82;;;19.60;99.90;;;;;;4945276;28;20082;-50
2021/08/25 10:16:39;;;;;;;3.60;1.20;;;19.50;99.90;;;;;;4947776;28;20031;-50
2021/08/25 10:19:23;;;;;;;1.33;0.68;;;19.40;99.90;;;;;;4945828;28;20023;-51
2021/08/25 10:21:49;;;;;;;1.55;0.60;;;19.20;99.90;;;;;;4947911;28;20023;-50
2021/08/25 10:24:15;;;;;;;0.60;0.60;;;19.20;99.90;;;;;;4949283;28;20825;-50
2021/08/25 10:26:58;;;;;;;0.82;0.60;;;19.20;99.90;;;;;;4947418;29;20470;-50
2021/08/25 10:29:28;;;;;;;2.15;1.25;;;19.10;99.90;;;;;;4948170;29;20049;-50
2021/08/25 10:31:55;;;;;;;3.17;0.73;;;19.00;99.90;;;;;;4946894;29;20031;-49
2021/08/25 10:34:30;;;;;;;1.55;0.80;;;18.80;99.90;;;;;;4949699;29;20082;-52
2021/08/25 10:37:11;;;;;;;2.60;0.88;;;18.70;99.90;;;;;;4946051;29;20428;-47
2021/08/25 10:39:37;;;;;;;2.50;0.85;;;18.60;99.90;;;;;;4944288;29;20027;-47
2021/08/25 10:42:04;;;;;;;1.58;0.60;;;18.60;99.90;;;;;;4944133;28;20508;-51
2021/08/25 10:44:44;;;;;;;2.20;0.80;;;18.60;99.90;;;;;;4948451;29;20058;-49
2021/08/25 10:47:12;;;;;;;0.60;0.57;;;18.40;99.90;;;;;;4948048;28;20563;-50
2021/08/25 10:49:40;;;;;;;2.63;1.73;;;18.40;99.90;;;;;;4947882;29;20029;-49
2021/08/25 10:52:29;;;;;;;2.33;0.50;;;18.40;99.90;;;;;;4948846;28;20023;-49
2021/08/25 10:54:55;;;;;;;1.20;0.55;;;18.40;99.90;;;;;;4948557;28;20439;-50
2021/08/25 10:57:23;;;;;;;1.40;0.77;;;18.30;99.90;;;;;;4943102;29;20024;-52
2021/08/25 10:59:50;;;;;;;0.90;0.70;;;18.30;99.90;;;;;;4949455;29;20019;-49
2021/08/25 11:02:15;;;;;;;1.33;0.80;;;18.30;99.90;;;;;;4950571;28;20382;-52
2021/08/25 11:04:41;;;;;;;1.02;0.68;;;18.30;99.90;;;;;;4946714;29;20055;-48
2021/08/25 11:07:10;;;;;;;2.28;0.77;;;18.30;99.90;;;;;;4949579;28;20379;-52
2021/08/25 11:09:42;;;;;;;4.05;0.88;;;18.20;99.90;;;;;;4951346;29;20103;-48
2021/08/25 11:12:14;;;;;;;3.40;1.15;;;18.20;99.90;;;;;;4952578;29;20078;-50
2021/08/25 11:14:51;;;;;;;1.55;0.52;;;18.10;99.90;;;;;;4949487;28;20120;-49
2021/08/25 11:17:25;;;;;;;3.10;0.68;;;18.00;99.90;;;;;;4952136;29;20055;-49
2021/08/25 11:19:56;;;;;;;2.75;0.57;;;17.90;99.90;;;;;;4948823;29;20098;-52
2021/08/25 11:22:32;;;;;;;2.60;0.82;;;17.80;99.90;;;;;;4952894;28;20082;-52
2021/08/25 11:25:30;;;;;;;1.00;0.63;;;17.70;99.90;;;;;;4946434;29;20502;-54
2021/08/25 11:27:55;;;;;;;2.60;1.23;;;17.70;99.90;;;;;;4908778;29;20036;-52
2021/08/25 11:30:29;;;;;;;4.13;1.05;;;17.70;99.90;;;;;;4943892;29;20098;-53
2021/08/25 11:33:04;;;;;;;4.30;1.13;;;17.70;99.90;;;;;;4951522;28;20038;-52
2021/08/25 11:35:42;;;;;;;2.97;1.35;;;17.60;99.90;;;;;;4941377;29;20091;-49
2021/08/25 11:38:15;;;;;;;3.53;0.95;;;17.50;99.90;;;;;;4950534;28;20037;-48
2021/08/25 11:40:43;;;;;;;3.90;1.10;;;17.50;99.90;;;;;;4950163;29;20110;-52
2021/08/25 11:43:15;;;;;;;1.58;0.65;;;17.60;99.90;;;;;;4976944;23;21788;-56
2021/08/25 11:45:43;;;;;;;1.15;0.68;;;17.50;99.90;;;;;;4976364;28;20037;-55
2021/08/25 11:48:09;;;;;;;1.50;0.88;;;17.60;99.90;;;;;;4971634;28;20419;-56
2021/08/25 11:50:45;;;;;;;1.10;0.65;;;17.60;99.90;;;;;;4971572;28;20241;-53
2021/08/25 11:53:14;;;;;;;0.88;0.82;;;17.60;99.90;;;;;;4970090;28;20109;-55
2021/08/25 11:55:39;;;;;;;1.30;0.60;;;17.60;99.90;;;;;;4977557;28;20030;-55
2021/08/25 11:58:19;;;;;;;3.05;0.90;;;17.60;99.90;;;;;;4987469;28;20030;-55
2021/08/25 12:00:45;;;;;;;1.10;0.70;;;17.50;99.90;;;;;;4976492;28;20035;-56
2021/08/25 12:03:11;;;;;;;1.40;0.80;;;17.60;99.90;;;;;;4981213;28;20023;-57
2021/08/25 12:05:49;;;;;;;1.38;0.77;;;17.70;99.90;;;;;;4974626;28;20037;-54
2021/08/25 12:08:15;;;;;;;1.10;0.90;;;17.70;99.90;;;;;;4965880;28;20031;-52
2021/08/25 12:10:47;;;;;;;0.63;0.60;;;17.60;99.90;;;;;;4982795;28;20429;-54
2021/08/25 12:13:32;;;;;;;1.92;0.70;;;17.60;99.90;;;;;;4972790;28;20477;-54
2021/08/25 12:15:59;;;;;;;0.65;0.63;;;17.60;99.90;;;;;;4975472;28;20113;-53
2021/08/25 12:18:26;;;;;;;1.77;0.80;;;17.60;99.90;;;;;;4969111;28;20090;-53
2021/08/25 12:20:54;;;;;;;2.75;0.90;;;17.50;99.90;;;;;;4962330;28;20070;-53
2021/08/25 12:23:22;;;;;;;1.55;0.95;;;17.40;99.90;;;;;;4955413;28;20027;-54
2021/08/25 12:25:50;;;;;;;1.20;0.55;;;17.50;99.90;;;;;;4965822;28;20690;-55
2021/08/25 12:28:36;;;;;;;1.25;1.02;;;17.60;99.90;;;;;;4970008;28;20074;-57
2021/08/25 12:31:17;;;;;;;2.97;1.20;;;17.60;99.90;;;;;;4969429;28;20027;-56
2021/08/25 12:33:45;;;;;;;2.58;0.82;;;17.60;99.90;;;;;;4970680;28;20054;-52
2021/08/25 12:36:34;;;;;;;3.05;0.77;;;17.60;99.90;;;;;;4965178;28;20025;-55
2021/08/25 12:39:06;;;;;;;2.67;1.40;;;17.70;99.90;;;;;;4969241;28;20027;-52
2021/08/25 12:41:33;;;;;;;1.13;1.00;;;17.60;99.90;;;;;;4963866;28;20023;-53
2021/08/25 12:43:59;;;;;;;2.45;0.60;;;17.50;99.90;;;;;;4968687;28;20039;-54
2021/08/25 12:46:25;;;;;;;2.50;1.30;;;17.40;99.90;;;;;;4972872;28;20030;-52